createdAt,value
2018-05-24T00:00:11.065Z,101793.97
2018-05-24T00:05:13.154Z,101795.89
2018-05-24T00:10:14.475Z,101798.23
2018-05-24T00:15:15.788Z,101797.81
2018-05-24T00:20:17.147Z,101795.95
2018-05-24T00:25:18.463Z,101797.58
2018-05-24T00:30:19.774Z,101795.12
2018-05-24T00:35:21.082Z,101790.92
2018-05-24T00:40:22.421Z,101796.36
2018-05-24T00:45:23.729Z,101784.94
2018-05-24T00:50:25.047Z,101790.21
2018-05-24T00:55:45.268Z,101780.39
2018-05-24T01:00:46.590Z,101785.67
2018-05-24T01:05:48.644Z,101789.82
2018-05-24T01:10:50.634Z,101788.02
2018-05-24T01:15:52.076Z,101797.17
2018-05-24T01:20:53.290Z,101795.24
2018-05-24T01:25:54.594Z,101791.95
2018-05-24T01:30:55.916Z,101789.61
2018-05-24T01:35:57.201Z,101791.92
2018-05-24T01:40:58.529Z,101792.28
2018-05-24T01:46:00.566Z,101784.84
2018-05-24T01:51:01.902Z,101787.08
2018-05-24T01:56:03.214Z,101784.09
2018-05-24T02:01:05.251Z,101783.98
2018-05-24T02:06:06.554Z,101775.73
2018-05-24T02:11:07.845Z,101778.54
2018-05-24T02:16:09.130Z,101784.70
2018-05-24T02:21:10.433Z,101771.67
2018-05-24T02:26:11.737Z,101755.19
2018-05-24T02:31:13.039Z,101759.78
2018-05-24T02:36:14.362Z,101766.83
2018-05-24T02:41:15.710Z,101760.14
2018-05-24T02:46:17.004Z,101750.50
2018-05-24T02:51:18.341Z,101747.11
2018-05-24T02:56:19.659Z,101744.54
2018-05-24T03:01:22.176Z,101747.79
2018-05-24T03:06:23.579Z,101735.47
2018-05-24T03:11:24.906Z,101734.58
2018-05-24T03:16:26.971Z,101733.30
2018-05-24T03:21:28.688Z,101733.77
2018-05-24T03:26:31.006Z,101739.25
2018-05-24T03:31:32.548Z,101734.41
2018-05-24T03:36:33.858Z,101735.69
2018-05-24T03:41:35.158Z,101737.52
2018-05-24T03:46:36.478Z,101746.84
2018-05-24T03:51:38.519Z,101739.26
2018-05-24T03:56:39.830Z,101742.56
2018-05-24T04:01:59.796Z,101750.56
2018-05-24T04:07:01.102Z,101752.67
2018-05-24T04:12:02.543Z,101744.40
2018-05-24T04:17:04.611Z,101749.19
2018-05-24T04:22:05.964Z,101742.98
2018-05-24T04:27:12.161Z,101738.11
2018-05-24T04:32:14.019Z,101741.05
2018-05-24T04:37:15.836Z,101741.42
2018-05-24T04:42:17.293Z,101741.73
2018-05-24T04:47:18.611Z,101733.80
2018-05-24T04:52:20.085Z,101742.09
2018-05-24T04:57:21.406Z,101743.46
2018-05-24T05:02:22.828Z,101736.97
2018-05-24T05:07:24.154Z,101737.41
2018-05-24T05:12:25.464Z,101743.97
2018-05-24T05:17:26.794Z,101745.63
2018-05-24T05:22:28.088Z,101737.86
2018-05-24T05:27:29.620Z,101754.11
2018-05-24T05:32:30.946Z,101750.47
2018-05-24T05:37:32.312Z,101741.66
2018-05-24T05:42:34.378Z,101742.66
2018-05-24T05:47:35.679Z,101746.74
2018-05-24T05:52:37.733Z,101740.00
2018-05-24T05:57:39.021Z,101739.38
2018-05-24T06:02:40.372Z,101745.63
2018-05-24T06:07:41.685Z,101746.09
2018-05-24T06:12:42.993Z,101750.17
2018-05-24T06:17:44.311Z,101744.87
2018-05-24T06:22:46.338Z,101741.70
2018-05-24T06:27:48.365Z,101739.67
2018-05-24T06:32:49.678Z,101738.75
2018-05-24T06:37:50.970Z,101735.95
2018-05-24T06:42:52.280Z,101739.19
2018-05-24T06:47:54.346Z,101743.43
2018-05-24T06:52:55.657Z,101739.88
2018-05-24T06:57:56.959Z,101752.91
2018-05-24T07:02:58.253Z,101753.94
2018-05-24T07:07:59.614Z,101749.73
2018-05-24T07:13:00.925Z,101743.11
2018-05-24T07:18:02.386Z,101740.88
2018-05-24T07:23:03.945Z,101739.95
2018-05-24T07:28:05.314Z,101751.67
2018-05-24T07:33:06.685Z,101743.34
2018-05-24T07:38:08.066Z,101739.06
2018-05-24T07:43:09.421Z,101745.78
2018-05-24T07:48:10.770Z,101758.86
2018-05-24T07:53:12.090Z,101758.75
2018-05-24T07:58:13.428Z,101756.51
2018-05-24T08:03:14.762Z,101750.88
2018-05-24T08:08:16.086Z,101753.05
2018-05-24T08:13:17.377Z,101754.72
2018-05-24T08:18:18.665Z,101752.40
2018-05-24T08:23:19.975Z,101752.43
2018-05-24T08:28:21.307Z,101755.36
2018-05-24T08:33:23.508Z,101745.52
2018-05-24T08:38:24.871Z,101740.66
2018-05-24T08:43:26.213Z,101742.77
2018-05-24T08:48:27.522Z,101737.24
2018-05-24T08:53:28.892Z,101735.09
2018-05-24T08:58:30.152Z,101730.88
2018-05-24T09:03:32.205Z,101731.08
2018-05-24T09:08:33.501Z,101719.47
2018-05-24T09:13:34.832Z,101715.72
2018-05-24T09:18:36.860Z,101709.56
2018-05-24T09:23:38.419Z,101705.76
2018-05-24T09:28:39.861Z,101702.17
2018-05-24T09:33:41.865Z,101711.95
2018-05-24T09:38:43.332Z,101685.22
2018-05-24T09:43:45.353Z,101703.92
2018-05-24T09:48:46.790Z,101698.06
2018-05-24T09:53:48.297Z,101700.97
2018-05-24T09:58:50.417Z,101684.05
2018-05-24T10:03:52.628Z,101668.69
2018-05-24T10:08:54.836Z,101669.07
2018-05-24T10:13:56.169Z,101669.75
2018-05-24T10:18:57.477Z,101674.66
2018-05-24T10:23:58.781Z,101660.92
2018-05-24T10:29:00.088Z,101645.04
2018-05-24T10:34:01.468Z,101666.67
2018-05-24T10:39:02.843Z,101658.02
2018-05-24T10:44:04.181Z,101665.39
2018-05-24T10:49:05.484Z,101669.50
2018-05-24T10:54:06.843Z,101671.81
2018-05-24T10:59:08.494Z,101668.26
2018-05-24T11:04:09.825Z,101667.27
2018-05-24T11:09:11.164Z,101668.83
2018-05-24T11:14:12.476Z,101646.74
2018-05-24T11:19:13.815Z,101655.62
2018-05-24T11:24:15.124Z,101652.48
2018-05-24T11:29:16.462Z,101665.27
2018-05-24T11:34:17.762Z,101649.94
2018-05-24T11:39:19.809Z,101655.02
2018-05-24T11:44:21.109Z,101643.13
2018-05-24T11:49:22.461Z,101644.33
2018-05-24T11:54:31.477Z,101635.97
2018-05-24T11:59:32.785Z,101635.44
2018-05-24T12:04:34.070Z,101637.22
2018-05-24T12:09:35.369Z,101639.52
2018-05-24T12:14:36.705Z,101640.61
2018-05-24T12:19:38.091Z,101639.82
2018-05-24T12:24:39.442Z,101634.51
2018-05-24T12:29:40.800Z,101627.13
2018-05-24T12:34:42.122Z,101628.66
2018-05-24T12:39:43.441Z,101628.64
2018-05-24T12:44:44.794Z,101625.03
2018-05-24T12:49:46.138Z,101620.47
2018-05-24T12:54:47.517Z,101614.12
2018-05-24T12:59:48.821Z,101607.15
2018-05-24T13:04:50.174Z,101605.84
2018-05-24T13:09:52.289Z,101608.64
2018-05-24T13:14:53.624Z,101603.52
2018-05-24T13:19:54.927Z,101601.62
2018-05-24T13:24:56.236Z,101605.20
2018-05-24T13:29:57.567Z,101603.64
2018-05-24T13:34:58.869Z,101598.80
2018-05-24T13:40:00.179Z,101590.24
2018-05-24T13:45:01.592Z,101575.84
2018-05-24T13:50:02.945Z,101571.81
2018-05-24T13:55:04.252Z,101559.78
2018-05-24T14:00:05.673Z,101556.88
2018-05-24T14:05:07.728Z,101550.79
2018-05-24T14:10:09.167Z,101553.24
2018-05-24T14:15:10.530Z,101547.77
2018-05-24T14:20:12.908Z,101543.28
2018-05-24T14:25:14.241Z,101539.13
2018-05-24T14:30:16.121Z,101515.94
2018-05-24T14:35:17.466Z,101520.56
2018-05-24T14:40:19.508Z,101513.98
2018-05-24T14:45:20.836Z,101506.89
2018-05-24T14:50:22.165Z,101498.19
2018-05-24T14:55:23.474Z,101499.86
2018-05-24T15:00:24.777Z,101480.29
2018-05-24T15:05:26.120Z,101478.97
2018-05-24T15:10:27.385Z,101475.58
2018-05-24T15:15:28.689Z,101474.60
2018-05-24T15:20:30.725Z,101476.12
2018-05-24T15:25:32.070Z,101475.09
2018-05-24T15:30:33.383Z,101457.27
2018-05-24T15:35:35.452Z,101473.41
2018-05-24T15:40:36.831Z,101467.58
2018-05-24T15:45:38.174Z,101457.84
2018-05-24T15:50:39.514Z,101448.13
2018-05-24T15:55:40.862Z,101451.17
2018-05-24T16:00:42.217Z,101457.01
2018-05-24T16:05:44.301Z,101453.61
2018-05-24T16:10:45.633Z,101448.95
2018-05-24T16:15:47.689Z,101455.21
2018-05-24T16:20:48.993Z,101445.77
2018-05-24T16:25:50.298Z,101450.92
2018-05-24T16:30:51.641Z,101447.70
2018-05-24T16:35:53.133Z,101447.64
2018-05-24T16:40:54.479Z,101441.03
2018-05-24T16:45:56.617Z,101437.45
2018-05-24T16:50:57.905Z,101433.87
2018-05-24T16:55:59.221Z,101434.11
2018-05-24T17:01:00.559Z,101430.06
2018-05-24T17:06:01.983Z,101429.31
2018-05-24T17:11:03.354Z,101421.19
2018-05-24T17:16:04.710Z,101420.52
2018-05-24T17:21:06.073Z,101423.70
2018-05-24T17:26:07.414Z,101428.64
2018-05-24T17:31:08.731Z,101428.67
2018-05-24T17:36:10.080Z,101428.30
2018-05-24T17:41:13.014Z,101431.26
2018-05-24T17:46:14.350Z,101432.17
2018-05-24T17:51:15.673Z,101431.05
2018-05-24T17:56:17.006Z,101437.30
2018-05-24T18:01:18.402Z,101436.95
2018-05-24T18:06:19.780Z,101439.88
2018-05-24T18:11:21.101Z,101448.64
2018-05-24T18:16:22.442Z,101449.16
2018-05-24T18:21:23.777Z,101448.89
2018-05-24T18:26:25.087Z,101447.69
2018-05-24T18:31:26.460Z,101453.57
2018-05-24T18:36:27.822Z,101443.44
2018-05-24T18:41:29.113Z,101442.53
2018-05-24T18:46:30.470Z,101447.77
2018-05-24T18:51:32.504Z,101448.98
2018-05-24T18:56:34.125Z,101455.11
2018-05-24T19:01:35.457Z,101451.44
2018-05-24T19:06:36.770Z,101451.41
2018-05-24T19:11:38.192Z,101449.20
2018-05-24T19:16:39.497Z,101459.66
2018-05-24T19:21:40.837Z,101459.86
2018-05-24T19:26:42.176Z,101466.84
2018-05-24T19:31:43.529Z,101466.04
2018-05-24T19:36:44.844Z,101465.72
2018-05-24T19:41:46.145Z,101466.97
2018-05-24T19:46:47.469Z,101468.73
2018-05-24T19:51:49.603Z,101466.09
2018-05-24T19:56:50.949Z,101469.80
2018-05-24T20:01:52.300Z,101473.66
2018-05-24T20:06:53.637Z,101477.08
2018-05-24T20:11:54.996Z,101482.16
2018-05-24T20:16:56.328Z,101486.02
2018-05-24T20:21:58.402Z,101485.50
2018-05-24T20:26:59.918Z,101482.09
2018-05-24T20:32:01.458Z,101485.90
2018-05-24T20:37:02.778Z,101483.59
2018-05-24T20:42:04.134Z,101485.74
2018-05-24T20:47:06.393Z,101486.17
2018-05-24T20:52:07.765Z,101494.25
2018-05-24T20:57:09.094Z,101492.62
2018-05-24T21:02:11.159Z,101499.19
2018-05-24T21:07:12.492Z,101493.77
2018-05-24T21:12:14.557Z,101495.70
2018-05-24T21:17:15.869Z,101500.97
2018-05-24T21:22:17.209Z,101496.55
2018-05-24T21:27:18.517Z,101485.83
2018-05-24T21:32:19.833Z,101486.45
2018-05-24T21:37:21.231Z,101488.02
2018-05-24T21:42:23.289Z,101480.52
2018-05-24T21:47:24.602Z,101480.45
2018-05-24T21:52:25.955Z,101480.72
2018-05-24T21:57:27.284Z,101475.61
2018-05-24T22:02:28.614Z,101480.83
2018-05-24T22:07:30.738Z,101474.79
2018-05-24T22:12:32.017Z,101477.45
2018-05-24T22:17:33.336Z,101484.65
2018-05-24T22:22:34.642Z,101487.31
2018-05-24T22:27:35.955Z,101495.16
2018-05-24T22:32:37.266Z,101491.94
2018-05-24T22:37:39.320Z,101492.64
2018-05-24T22:42:40.695Z,101499.70
2018-05-24T22:47:41.977Z,101500.12
2018-05-24T22:52:43.304Z,101495.38
2018-05-24T22:57:44.622Z,101498.95
2018-05-24T23:02:46.690Z,101492.55
2018-05-24T23:07:48.053Z,101493.50
2018-05-24T23:12:49.374Z,101499.95
2018-05-24T23:17:50.681Z,101498.17
2018-05-24T23:22:51.993Z,101491.66
2018-05-24T23:27:54.038Z,101486.84
2018-05-24T23:32:55.373Z,101482.95
2018-05-24T23:37:56.675Z,101482.09
2018-05-24T23:42:58.750Z,101476.38
2018-05-24T23:48:00.071Z,101485.12
2018-05-24T23:53:02.108Z,101487.27
2018-05-24T23:58:03.420Z,101486.55
